aviador You're here:

LEAS Decoded Metar

ASTURIAS in SPAIN
Report Time2018-06-17 21:30:00
UTC Time2018-06-17 21:44:15
Flight Rules vfr VFR
Wind290° at 02 kt
W.Decomp.*RWY 29: 2.0 kt HW 0.1 kt RCW
W.Rank290° ranks 5
Current wind is below 290° avg. (10.5)
Visibility9999 m
Phenomena:N/A
Clouds:N/A
Expected CloudBase > 800 ft AGL from Temp-Dew spread
CeilingNone
Temp15°C (ISA +1)
Dew Point13°C (88% RH)
QNH1027 hPa
Density Alt272 ft
Elevation440 ft
Report Wrong Elevation
Raw Report
METAR LEAS 172130Z 29002KT CAVOK 15/13 Q1027 NOSIG=

Extra information for LEAS:More info

Metar Taf Metar & Taf Last 4 Metars F.Rules Stats Wind Profile Meteogram Temp Stats Airport Information Weather charts Add Link Nearby VenuesMetar ALERT Operation Metar Decoded Social comments